Time;durP1;ratioP1;P1;durP2;ratioP2;P2;SDS_P1;SDS_P2;PMS_P1;PMS_P2;Temp;Humidity;BMP_temperature;BMP_pressure;BME280_temperature;BME280_humidity;BME280_pressure;Samples;Min_cycle;Max_cycle;Signal;HPM_P1;HPM_P2
2022/11/14 00:00:55;;;;;;;0.10;0.10;;;;;;;4.84;100.00;98671.34;4964327;28;20284;-64
2022/11/14 00:03:40;;;;;;;0.10;0.10;;;;;;;4.83;100.00;98668.84;4959955;28;20390;-64
2022/11/14 00:06:26;;;;;;;0.10;0.10;;;;;;;4.83;100.00;98664.50;4941299;28;20296;-64
2022/11/14 00:09:12;;;;;;;0.00;0.00;;;;;;;4.80;100.00;98661.31;4960208;28;20232;-64
2022/11/14 00:11:57;;;;;;;0.10;0.10;;;;;;;4.81;100.00;98656.03;4957838;28;20284;-64
2022/11/14 00:14:42;;;;;;;0.00;0.00;;;;;;;4.83;100.00;98658.50;4952765;28;20233;-64
2022/11/14 00:17:27;;;;;;;0.00;0.00;;;;;;;4.82;100.00;98652.53;4958471;28;20233;-64
2022/11/14 00:20:13;;;;;;;0.00;0.00;;;;;;;4.75;100.00;98646.16;4960828;28;20283;-64
2022/11/14 00:22:58;;;;;;;0.10;0.10;;;;;;;4.79;100.00;98657.09;4955511;28;20370;-64
2022/11/14 00:25:46;;;;;;;0.00;0.00;;;;;;;4.81;100.00;98648.28;4956146;28;20229;-64
2022/11/14 00:28:31;;;;;;;0.10;0.10;;;;;;;4.80;100.00;98646.63;4952380;28;20726;-64
2022/11/14 00:31:16;;;;;;;0.00;0.00;;;;;;;4.90;100.00;98651.13;4946975;28;20236;-64
2022/11/14 00:34:01;;;;;;;0.10;0.10;;;;;;;4.83;100.00;98640.41;4958047;28;20749;-64
2022/11/14 00:36:46;;;;;;;0.10;0.10;;;;;;;4.87;100.00;98634.91;4957270;28;20253;-64
2022/11/14 00:39:31;;;;;;;0.10;0.10;;;;;;;4.84;100.00;98627.38;4960968;28;20232;-64
2022/11/14 00:42:18;;;;;;;0.00;0.00;;;;;;;4.85;100.00;98629.03;4956435;28;20385;-64
2022/11/14 00:45:04;;;;;;;0.00;0.00;;;;;;;4.82;100.00;98626.66;4961395;28;20236;-64
2022/11/14 00:47:49;;;;;;;0.00;0.00;;;;;;;4.83;100.00;98624.88;4958394;28;20236;-64
2022/11/14 00:50:34;;;;;;;0.10;0.10;;;;;;;4.84;100.00;98626.53;4959083;28;20315;-64
2022/11/14 00:53:19;;;;;;;0.00;0.00;;;;;;;4.82;100.00;98628.41;4959549;28;20262;-65
2022/11/14 00:56:05;;;;;;;0.10;0.10;;;;;;;4.78;100.00;98627.81;4956449;28;20712;-65
2022/11/14 00:58:52;;;;;;;0.00;0.00;;;;;;;4.80;100.00;98625.94;4958751;28;20599;-65
2022/11/14 01:01:37;;;;;;;0.00;0.00;;;;;;;4.83;100.00;98630.91;4958661;28;20709;-64
2022/11/14 01:04:22;;;;;;;0.00;0.00;;;;;;;4.76;100.00;98627.13;4954860;28;20277;-64
2022/11/14 01:07:07;;;;;;;0.03;0.03;;;;;;;4.80;100.00;98625.94;4946692;28;20766;-64
2022/11/14 01:09:52;;;;;;;0.00;0.00;;;;;;;4.78;100.00;98635.59;4955059;28;20282;-64
2022/11/14 01:12:38;;;;;;;0.07;0.07;;;;;;;4.79;100.00;98626.88;4955362;28;20225;-64
2022/11/14 01:15:24;;;;;;;0.00;0.00;;;;;;;4.68;100.00;98625.09;4958795;28;20272;-64
2022/11/14 01:18:12;;;;;;;0.00;0.00;;;;;;;4.65;100.00;98619.31;4955915;28;20237;-64
2022/11/14 01:20:57;;;;;;;0.10;0.10;;;;;;;4.69;100.00;98619.00;4959792;28;20751;-64
2022/11/14 01:23:42;;;;;;;0.07;0.07;;;;;;;4.55;100.00;98622.59;4962450;28;20262;-64
2022/11/14 01:26:27;;;;;;;0.00;0.00;;;;;;;4.59;100.00;98602.50;4958740;28;20290;-64
2022/11/14 01:29:12;;;;;;;0.00;0.00;;;;;;;4.55;100.00;98601.09;4956518;28;20236;-64
2022/11/14 01:31:58;;;;;;;0.10;0.10;;;;;;;4.54;100.00;98604.63;4948112;28;20235;-64
2022/11/14 01:34:43;;;;;;;0.00;0.00;;;;;;;4.67;100.00;98610.53;4957221;28;20340;-64
2022/11/14 01:37:28;;;;;;;0.00;0.00;;;;;;;4.50;100.00;98604.00;4956843;28;20735;-64
2022/11/14 01:40:14;;;;;;;0.00;0.00;;;;;;;4.43;100.00;98600.22;4957913;28;20249;-64
2022/11/14 01:43:28;;;;;;;0.10;0.10;;;;;;;4.38;100.00;98594.56;4953132;28;20245;-64
2022/11/14 01:46:17;;;;;;;0.10;0.10;;;;;;;4.37;100.00;98600.66;4961514;28;20244;-64
2022/11/14 01:49:08;;;;;;;0.10;0.10;;;;;;;4.41;100.00;98594.34;4961160;28;20652;-64
2022/11/14 01:52:02;;;;;;;0.00;0.00;;;;;;;4.45;100.00;98582.03;4959740;28;20253;-64
2022/11/14 01:54:50;;;;;;;0.00;0.00;;;;;;;4.45;100.00;98574.28;4959867;28;20373;-64
2022/11/14 01:57:45;;;;;;;0.00;0.00;;;;;;;4.48;100.00;98564.50;4962986;28;20283;-64
2022/11/14 02:00:31;;;;;;;0.00;0.00;;;;;;;4.54;100.00;98558.88;4960892;28;20292;-64
2022/11/14 02:03:16;;;;;;;0.00;0.00;;;;;;;4.60;100.00;98549.03;4962451;28;20732;-64
2022/11/14 02:06:06;;;;;;;0.00;0.00;;;;;;;4.63;100.00;98549.66;4964081;28;20240;-64
2022/11/14 02:08:52;;;;;;;0.07;0.07;;;;;;;4.63;100.00;98541.88;4961477;28;20699;-64
2022/11/14 02:11:41;;;;;;;0.07;0.07;;;;;;;4.67;100.00;98532.97;4961638;28;20233;-64
2022/11/14 02:14:27;;;;;;;0.10;0.10;;;;;;;4.72;100.00;98535.19;4960603;28;20591;-65
2022/11/14 02:17:12;;;;;;;0.00;0.00;;;;;;;4.74;100.00;98538.47;4955799;28;20245;-65
2022/11/14 02:20:07;;;;;;;0.00;0.00;;;;;;;4.76;100.00;98536.59;4956857;28;20746;-65
2022/11/14 02:22:52;;;;;;;0.10;0.10;;;;;;;4.73;100.00;98535.09;4954109;28;20232;-64
2022/11/14 02:25:37;;;;;;;0.03;0.03;;;;;;;4.71;100.00;98534.38;4955853;28;20638;-64
2022/11/14 02:28:23;;;;;;;0.10;0.10;;;;;;;4.67;100.00;98535.56;4956148;28;20274;-64
2022/11/14 02:31:07;;;;;;;0.00;0.00;;;;;;;4.50;100.00;98533.41;4958604;28;20304;-65
2022/11/14 02:33:52;;;;;;;0.00;0.00;;;;;;;4.48;100.00;98541.25;4956786;28;20240;-65
2022/11/14 02:36:39;;;;;;;0.10;0.10;;;;;;;4.44;100.00;98526.91;4951420;28;20232;-64
2022/11/14 02:39:24;;;;;;;0.00;0.00;;;;;;;4.39;100.00;98539.34;4956405;28;20237;-64
2022/11/14 02:42:09;;;;;;;0.00;0.00;;;;;;;4.40;100.00;98536.66;4956341;28;20324;-64
2022/11/14 02:44:54;;;;;;;0.00;0.00;;;;;;;4.39;100.00;98529.00;4956872;28;20248;-65
2022/11/14 02:47:40;;;;;;;0.10;0.10;;;;;;;4.35;100.00;98518.09;4964347;28;20240;-65
2022/11/14 02:50:25;;;;;;;0.03;0.03;;;;;;;4.32;100.00;98512.31;4957898;28;20598;-65
2022/11/14 02:53:11;;;;;;;0.00;0.00;;;;;;;4.36;100.00;98514.56;4960661;28;20236;-64
2022/11/14 02:55:56;;;;;;;0.00;0.00;;;;;;;4.39;100.00;98516.09;4960678;28;20232;-65
2022/11/14 02:58:41;;;;;;;0.00;0.00;;;;;;;4.36;100.00;98517.16;4964540;28;21036;-65
2022/11/14 03:01:26;;;;;;;0.10;0.10;;;;;;;4.37;100.00;98516.22;4960078;28;20325;-65
2022/11/14 03:04:11;;;;;;;0.10;0.10;;;;;;;4.42;100.00;98510.69;4960480;28;20886;-64
2022/11/14 03:06:57;;;;;;;0.10;0.10;;;;;;;4.43;100.00;98514.91;4959939;28;20237;-64
2022/11/14 03:09:43;;;;;;;0.10;0.10;;;;;;;4.39;100.00;98514.34;4963938;28;20368;-64
2022/11/14 03:12:28;;;;;;;0.00;0.00;;;;;;;4.43;100.00;98515.75;4960805;28;20255;-64
2022/11/14 03:15:13;;;;;;;0.00;0.00;;;;;;;4.34;100.00;98513.84;4959256;28;20229;-64
2022/11/14 03:17:58;;;;;;;0.00;0.00;;;;;;;4.34;100.00;98510.44;4962850;28;20244;-64
2022/11/14 03:20:43;;;;;;;0.00;0.00;;;;;;;4.35;100.00;98509.50;4960659;28;20386;-64
2022/11/14 03:23:28;;;;;;;0.00;0.00;;;;;;;4.39;100.00;98513.50;4959964;28;20364;-64
2022/11/14 03:26:16;;;;;;;0.00;0.00;;;;;;;4.38;100.00;98504.09;4959659;28;20236;-65
2022/11/14 03:29:01;;;;;;;0.03;0.03;;;;;;;4.36;100.00;98501.66;4960120;28;20303;-64
2022/11/14 03:31:46;;;;;;;0.03;0.03;;;;;;;4.42;100.00;98502.94;4960780;28;20241;-64
2022/11/14 03:34:31;;;;;;;0.10;0.10;;;;;;;4.24;100.00;98508.53;4960362;28;20284;-64
2022/11/14 03:37:16;;;;;;;0.00;0.00;;;;;;;4.13;100.00;98498.19;4958772;28;20233;-64
2022/11/14 03:40:01;;;;;;;0.00;0.00;;;;;;;4.10;100.00;98501.00;4961011;28;20261;-62
2022/11/14 03:42:47;;;;;;;0.00;0.00;;;;;;;3.96;100.00;98497.66;4958262;28;20365;-62
2022/11/14 03:45:32;;;;;;;0.00;0.00;;;;;;;3.94;100.00;98494.38;4961413;28;20265;-62
2022/11/14 03:48:18;;;;;;;0.10;0.10;;;;;;;4.01;100.00;98489.56;4956825;28;20272;-62
2022/11/14 03:51:03;;;;;;;0.00;0.00;;;;;;;4.06;100.00;98484.88;4959591;28;20292;-62
2022/11/14 03:53:48;;;;;;;0.00;0.00;;;;;;;4.10;100.00;98483.72;4951442;28;20244;-62
2022/11/14 03:56:33;;;;;;;0.00;0.00;;;;;;;4.10;100.00;98491.47;4961755;28;20220;-62
2022/11/14 03:59:19;;;;;;;0.00;0.00;;;;;;;4.12;100.00;98488.78;4957476;28;20256;-62
2022/11/14 04:04:46;;;;;;;0.10;0.10;;;;;;;4.01;100.00;98478.44;5327768;23;20716;-59
2022/11/14 04:07:31;;;;;;;0.00;0.00;;;;;;;3.98;100.00;98477.72;4909626;29;20334;-59
2022/11/14 04:10:17;;;;;;;0.00;0.00;;;;;;;3.80;100.00;98472.13;4897333;29;20278;-59
2022/11/14 04:13:04;;;;;;;0.10;0.10;;;;;;;3.82;100.00;98472.03;4906632;29;20238;-60
2022/11/14 04:16:00;;;;;;;0.07;0.07;;;;;;;3.89;100.00;98477.53;4923550;29;20313;-60
2022/11/14 04:18:45;;;;;;;0.10;0.10;;;;;;;3.89;100.00;98480.97;4925874;29;20242;-60
2022/11/14 04:21:30;;;;;;;0.10;0.10;;;;;;;3.89;100.00;98474.97;4923092;29;20710;-60
2022/11/14 04:24:15;;;;;;;0.00;0.00;;;;;;;3.86;100.00;98478.59;4922174;29;20240;-59
2022/11/14 04:27:00;;;;;;;0.00;0.00;;;;;;;3.85;100.00;98479.53;4916768;29;20267;-59
2022/11/14 04:29:45;;;;;;;0.10;0.10;;;;;;;3.87;100.00;98476.84;4918091;29;20334;-61
2022/11/14 04:32:31;;;;;;;0.00;0.00;;;;;;;3.85;100.00;98474.38;5111600;23;20221;-58
2022/11/14 04:35:17;;;;;;;0.00;0.00;;;;;;;3.87;100.00;98479.41;4926021;29;20710;-60
2022/11/14 04:38:02;;;;;;;0.10;0.10;;;;;;;3.93;100.00;98490.13;4919130;29;20932;-60
2022/11/14 04:40:51;;;;;;;0.10;0.10;;;;;;;3.96;100.00;98486.50;4926353;28;20234;-59
2022/11/14 04:43:36;;;;;;;0.00;0.00;;;;;;;3.98;100.00;98471.72;4940345;29;20246;-59
2022/11/14 04:46:22;;;;;;;0.00;0.00;;;;;;;4.05;100.00;98472.91;4937520;29;20237;-59
2022/11/14 04:49:18;;;;;;;0.10;0.10;;;;;;;4.06;100.00;98461.63;4923674;29;20290;-63
2022/11/14 04:52:03;;;;;;;0.00;0.00;;;;;;;4.10;100.00;98457.09;4934971;29;20249;-60
2022/11/14 04:54:48;;;;;;;0.10;0.10;;;;;;;4.08;100.00;98453.78;4938138;29;20237;-59
2022/11/14 04:57:33;;;;;;;0.10;0.10;;;;;;;4.01;100.00;98450.81;4940195;29;20225;-59
2022/11/14 05:00:19;;;;;;;0.03;0.03;;;;;;;3.99;100.00;98455.28;4924525;29;20241;-59
2022/11/14 05:03:04;;;;;;;0.00;0.00;;;;;;;4.05;100.00;98443.69;4936542;29;20373;-58
2022/11/14 05:05:50;;;;;;;0.00;0.00;;;;;;;4.06;100.00;98440.16;4936614;29;20242;-60
2022/11/14 05:08:36;;;;;;;0.00;0.00;;;;;;;4.03;100.00;98438.63;4940304;29;20719;-59
2022/11/14 05:11:21;;;;;;;0.03;0.03;;;;;;;4.04;100.00;98444.63;4934887;28;20242;-59
2022/11/14 05:14:06;;;;;;;0.00;0.00;;;;;;;4.04;100.00;98434.28;4936216;28;20316;-59
2022/11/14 05:16:51;;;;;;;0.07;0.07;;;;;;;3.99;100.00;98437.19;4939691;29;20330;-59
2022/11/14 05:19:36;;;;;;;0.00;0.00;;;;;;;3.93;100.00;98440.22;4928805;29;20317;-59
2022/11/14 05:22:23;;;;;;;0.10;0.10;;;;;;;3.89;100.00;98436.22;4919481;29;20243;-59
2022/11/14 05:25:09;;;;;;;0.10;0.10;;;;;;;3.85;100.00;98425.31;4918255;29;20338;-60
2022/11/14 05:27:54;;;;;;;0.07;0.07;;;;;;;3.87;100.00;98423.44;4919045;29;20230;-59
2022/11/14 05:30:39;;;;;;;0.10;0.10;;;;;;;3.90;100.00;98432.72;4920992;29;20233;-57
2022/11/14 05:33:24;;;;;;;0.00;0.00;;;;;;;3.97;100.00;98426.16;4931805;29;20245;-60
2022/11/14 05:36:11;;;;;;;0.00;0.00;;;;;;;4.04;100.00;98417.03;4935443;29;20261;-60
2022/11/14 05:38:57;;;;;;;0.00;0.00;;;;;;;4.08;100.00;98413.28;4935796;29;20241;-59
2022/11/14 05:41:42;;;;;;;0.10;0.10;;;;;;;4.04;100.00;98424.78;4938292;29;20316;-59
2022/11/14 05:44:28;;;;;;;0.10;0.10;;;;;;;4.05;100.00;98421.25;4936539;29;20604;-60
2022/11/14 05:47:12;;;;;;;0.00;0.00;;;;;;;4.03;100.00;98423.13;4936032;29;20304;-60
2022/11/14 05:49:57;;;;;;;0.10;0.10;;;;;;;4.00;100.00;98415.59;4934438;29;20596;-59
2022/11/14 05:52:42;;;;;;;0.00;0.00;;;;;;;4.04;100.00;98406.69;4937695;28;20313;-59
2022/11/14 05:55:29;;;;;;;0.00;0.00;;;;;;;4.04;100.00;98406.69;4934454;29;20246;-59
2022/11/14 05:58:14;;;;;;;0.00;0.00;;;;;;;4.07;100.00;98403.88;4937422;29;20767;-59
2022/11/14 06:01:07;;;;;;;0.00;0.00;;;;;;;4.09;100.00;98399.41;4937800;28;20241;-60
2022/11/14 06:03:52;;;;;;;0.10;0.10;;;;;;;4.10;100.00;98393.31;4934476;29;20250;-59
2022/11/14 06:06:37;;;;;;;0.10;0.10;;;;;;;4.13;100.00;98394.88;4941440;29;20378;-59
2022/11/14 06:09:22;;;;;;;0.00;0.00;;;;;;;4.10;100.00;98382.97;4937304;28;20828;-59
2022/11/14 06:12:08;;;;;;;0.10;0.10;;;;;;;4.08;100.00;98382.28;4935204;28;20261;-59
2022/11/14 06:14:54;;;;;;;0.00;0.00;;;;;;;4.11;100.00;98381.25;4936938;29;20265;-59
2022/11/14 06:17:39;;;;;;;0.00;0.00;;;;;;;4.10;100.00;98388.16;4938641;28;20242;-59
2022/11/14 06:20:24;;;;;;;0.00;0.00;;;;;;;4.09;100.00;98381.34;4934457;29;20291;-59
2022/11/14 06:23:09;;;;;;;0.07;0.07;;;;;;;4.13;100.00;98384.53;4914082;29;20711;-60
2022/11/14 06:25:59;;;;;;;0.00;0.00;;;;;;;4.11;100.00;98386.41;4919432;29;20731;-59
2022/11/14 06:28:46;;;;;;;0.10;0.10;;;;;;;4.15;100.00;98382.66;4914048;29;20282;-60
2022/11/14 06:31:31;;;;;;;0.00;0.00;;;;;;;4.23;100.00;98379.47;4920181;29;20747;-59
2022/11/14 06:34:16;;;;;;;0.00;0.00;;;;;;;4.16;100.00;98386.88;4930168;29;20233;-59
2022/11/14 06:37:01;;;;;;;0.10;0.10;;;;;;;4.18;100.00;98381.59;4935802;29;20242;-59
2022/11/14 06:39:46;;;;;;;0.00;0.00;;;;;;;4.19;100.00;98396.16;4937756;29;20241;-60
2022/11/14 06:42:35;;;;;;;0.00;0.00;;;;;;;4.19;100.00;98396.97;4938357;29;20249;-60
2022/11/14 06:45:21;;;;;;;0.00;0.00;;;;;;;4.26;100.00;98387.00;4937029;29;20249;-59
2022/11/14 06:48:06;;;;;;;0.03;0.03;;;;;;;4.27;100.00;98386.88;4938037;29;20751;-60
2022/11/14 06:50:52;;;;;;;0.10;0.10;;;;;;;4.34;100.00;98395.00;4934084;28;21006;-59
2022/11/14 06:53:38;;;;;;;0.00;0.00;;;;;;;4.35;100.00;98395.78;4938266;29;20281;-60
2022/11/14 06:56:25;;;;;;;0.00;0.00;;;;;;;4.40;100.00;98399.69;4908279;29;20234;-60
2022/11/14 06:59:10;;;;;;;0.00;0.00;;;;;;;4.46;100.00;98393.22;4932808;29;20238;-59
2022/11/14 07:01:56;;;;;;;0.00;0.00;;;;;;;4.49;100.00;98399.94;4934266;29;20317;-58
2022/11/14 07:04:41;;;;;;;0.00;0.00;;;;;;;4.50;100.00;98399.78;4936778;29;20714;-58
2022/11/14 07:07:27;;;;;;;0.03;0.03;;;;;;;4.47;100.00;98401.81;4936535;29;20703;-59
2022/11/14 07:10:12;;;;;;;0.00;0.00;;;;;;;4.47;100.00;98417.31;4918652;29;20298;-59
2022/11/14 07:12:57;;;;;;;0.10;0.10;;;;;;;4.54;100.00;98418.50;4932553;29;20234;-58
2022/11/14 07:15:49;;;;;;;0.00;0.00;;;;;;;4.54;100.00;98429.63;4939514;29;20581;-59
2022/11/14 07:18:36;;;;;;;0.03;0.03;;;;;;;4.68;100.00;98426.00;4919324;29;20679;-59
2022/11/14 07:21:21;;;;;;;0.00;0.00;;;;;;;4.71;100.00;98424.94;4918758;29;20274;-58
2022/11/14 07:24:06;;;;;;;0.10;0.10;;;;;;;4.75;100.00;98426.34;4915894;29;20593;-58
2022/11/14 07:26:51;;;;;;;0.10;0.10;;;;;;;4.76;100.00;98429.78;4917696;29;20316;-59
2022/11/14 07:29:36;;;;;;;0.00;0.00;;;;;;;4.78;100.00;98436.47;4917686;29;20314;-57
2022/11/14 07:32:22;;;;;;;0.10;0.10;;;;;;;4.86;100.00;98435.84;4932964;29;20251;-58
2022/11/14 07:35:08;;;;;;;0.00;0.00;;;;;;;4.94;100.00;98435.28;4937116;29;20731;-58
2022/11/14 07:37:53;;;;;;;0.03;0.03;;;;;;;4.96;100.00;98429.03;4938053;29;20229;-58
2022/11/14 07:40:38;;;;;;;0.10;0.10;;;;;;;4.98;100.00;98439.25;4941964;29;20249;-59
2022/11/14 07:43:24;;;;;;;0.10;0.10;;;;;;;5.02;100.00;98433.72;4936207;29;20333;-58
2022/11/14 07:46:11;;;;;;;0.00;0.00;;;;;;;5.08;100.00;98441.94;4936459;29;20604;-57
2022/11/14 07:48:56;;;;;;;0.00;0.00;;;;;;;5.09;100.00;98441.00;4937893;29;20249;-57
2022/11/14 07:51:43;;;;;;;0.00;0.00;;;;;;;5.00;100.00;98434.78;4941528;28;20253;-58
2022/11/14 07:54:28;;;;;;;0.00;0.00;;;;;;;5.03;100.00;98439.72;4937671;29;20230;-58
2022/11/14 07:57:13;;;;;;;0.00;0.00;;;;;;;5.00;100.00;98451.13;4937968;29;20244;-59
2022/11/14 07:59:58;;;;;;;0.00;0.00;;;;;;;5.10;100.00;98447.81;4938637;29;20733;-58
2022/11/14 08:02:45;;;;;;;0.00;0.00;;;;;;;5.08;100.00;98449.69;4940250;28;20227;-59
2022/11/14 08:05:30;;;;;;;0.00;0.00;;;;;;;5.13;100.00;98450.16;4906336;29;20242;-59
2022/11/14 08:08:16;;;;;;;0.00;0.00;;;;;;;5.11;100.00;98468.41;4939085;29;20427;-59
2022/11/14 08:11:02;;;;;;;0.00;0.00;;;;;;;5.07;100.00;98459.25;4937633;28;20603;-57
2022/11/14 08:13:47;;;;;;;0.00;0.00;;;;;;;5.11;100.00;98463.25;4936662;29;20234;-58
2022/11/14 08:16:33;;;;;;;0.00;0.00;;;;;;;5.24;100.00;98465.69;4940223;29;20312;-59
2022/11/14 08:19:18;;;;;;;0.00;0.00;;;;;;;5.34;100.00;98459.78;4941128;29;20293;-58
2022/11/14 08:22:03;;;;;;;0.00;0.00;;;;;;;5.42;100.00;98453.03;4936287;29;20250;-58
2022/11/14 08:24:49;;;;;;;0.07;0.07;;;;;;;5.47;100.00;98453.50;4938302;29;20239;-58
2022/11/14 08:27:34;;;;;;;0.00;0.00;;;;;;;5.56;100.00;98451.13;4939598;29;20241;-58
2022/11/14 08:30:20;;;;;;;0.00;0.00;;;;;;;5.65;100.00;98441.78;4937520;29;20249;-59
2022/11/14 08:33:06;;;;;;;0.00;0.00;;;;;;;5.80;100.00;98437.97;4934091;29;20346;-58
2022/11/14 08:35:51;;;;;;;0.00;0.00;;;;;;;5.88;100.00;98435.53;4937317;29;20253;-58
2022/11/14 08:38:36;;;;;;;0.00;0.00;;;;;;;5.98;100.00;98434.78;4939703;29;20230;-58
2022/11/14 08:41:25;;;;;;;0.10;0.10;;;;;;;6.03;100.00;98435.28;4936054;28;20241;-58
2022/11/14 08:44:10;;;;;;;0.10;0.10;;;;;;;6.12;100.00;98425.94;4938149;29;20328;-59
2022/11/14 08:46:55;;;;;;;0.00;0.00;;;;;;;6.26;100.00;98438.56;4935787;29;20257;-58
2022/11/14 08:49:41;;;;;;;0.00;0.00;;;;;;;6.40;100.00;98428.78;4939337;29;20735;-59
2022/11/14 08:52:26;;;;;;;0.00;0.00;;;;;;;6.49;100.00;98433.19;4939392;29;20292;-58
2022/11/14 08:55:14;;;;;;;0.00;0.00;;;;;;;6.43;100.00;98423.34;4934305;29;20585;-59
2022/11/14 08:58:00;;;;;;;0.00;0.00;;;;;;;6.62;100.00;98433.81;4939160;29;20238;-58
2022/11/14 09:00:45;;;;;;;0.00;0.00;;;;;;;6.78;100.00;98433.34;4940625;28;20245;-59
2022/11/14 09:03:31;;;;;;;0.00;0.00;;;;;;;6.83;100.00;98435.53;4938761;29;20253;-59
2022/11/14 09:06:16;;;;;;;0.00;0.00;;;;;;;6.79;100.00;98434.16;4934818;29;20250;-58
2022/11/14 09:09:04;;;;;;;0.00;0.00;;;;;;;6.82;100.00;98436.47;4933989;29;20649;-59
2022/11/14 09:11:49;;;;;;;0.00;0.00;;;;;;;6.83;100.00;98440.72;4937919;29;20245;-60
2022/11/14 09:14:35;;;;;;;0.00;0.00;;;;;;;6.89;100.00;98440.19;4940729;29;20237;-59
2022/11/14 09:17:20;;;;;;;0.00;0.00;;;;;;;6.97;100.00;98436.94;4936317;29;20750;-59
2022/11/14 09:20:06;;;;;;;0.00;0.00;;;;;;;6.92;100.00;98441.69;4932203;29;20369;-59
2022/11/14 09:22:52;;;;;;;0.00;0.00;;;;;;;6.98;100.00;98437.75;4932098;28;20245;-59
2022/11/14 09:25:37;;;;;;;0.00;0.00;;;;;;;6.99;100.00;98437.63;4942548;29;20249;-59
2022/11/14 09:28:23;;;;;;;0.00;0.00;;;;;;;6.97;100.00;98434.34;4939919;29;20233;-59
2022/11/14 09:31:12;;;;;;;0.00;0.00;;;;;;;7.03;100.00;98430.41;4935863;29;20244;-60
2022/11/14 09:33:58;;;;;;;0.00;0.00;;;;;;;7.17;100.00;98431.78;4936555;29;20227;-59
2022/11/14 09:36:45;;;;;;;0.00;0.00;;;;;;;7.28;100.00;98428.28;4935496;29;20304;-59
2022/11/14 09:39:30;;;;;;;0.00;0.00;;;;;;;7.46;100.00;98431.81;4939721;29;20238;-58
2022/11/14 09:42:29;;;;;;;0.00;0.00;;;;;;;7.55;100.00;98432.78;4935381;29;20297;-58
2022/11/14 09:45:16;;;;;;;0.00;0.00;;;;;;;7.75;100.00;98431.00;4934254;29;20241;-58
2022/11/14 09:48:06;;;;;;;0.00;0.00;;;;;;;7.78;100.00;98432.53;4935988;29;20310;-57
2022/11/14 09:51:04;;;;;;;0.00;0.00;;;;;;;7.81;100.00;98440.03;4933337;28;20233;-57
2022/11/14 09:53:54;;;;;;;0.00;0.00;;;;;;;7.65;100.00;98433.63;4937125;28;20233;-58
2022/11/14 09:56:39;;;;;;;0.00;0.00;;;;;;;7.56;100.00;98431.00;4939556;29;20258;-58
2022/11/14 09:59:24;;;;;;;0.00;0.00;;;;;;;7.48;100.00;98429.91;4936188;28;20234;-58
2022/11/14 10:02:23;;;;;;;0.00;0.00;;;;;;;7.42;100.00;98434.84;4925888;28;20277;-59
2022/11/14 10:05:30;;;;;;;0.00;0.00;;;;;;;7.30;100.00;98437.56;4934225;29;20245;-58
2022/11/14 10:08:35;;;;;;;0.00;0.00;;;;;;;7.23;100.00;98437.28;4935377;29;20319;-57
2022/11/14 10:11:23;;;;;;;0.00;0.00;;;;;;;7.28;100.00;98434.28;4935205;29;20237;-59
2022/11/14 10:14:25;;;;;;;0.00;0.00;;;;;;;7.06;100.00;98428.34;4937870;28;20234;-58
2022/11/14 10:17:38;;;;;;;0.00;0.00;;;;;;;7.13;100.00;98420.03;4937634;29;20300;-58
2022/11/14 10:20:32;;;;;;;0.00;0.00;;;;;;;7.27;100.00;98427.44;4933665;29;20238;-59
2022/11/14 10:23:39;;;;;;;0.00;0.00;;;;;;;7.48;100.00;98439.50;4937501;29;20330;-59
2022/11/14 10:26:28;;;;;;;0.00;0.00;;;;;;;7.46;100.00;98433.59;4936576;29;20309;-58
2022/11/14 10:29:46;;;;;;;0.00;0.00;;;;;;;7.36;100.00;98429.22;4936576;29;20230;-59
2022/11/14 10:32:48;;;;;;;0.00;0.00;;;;;;;7.39;100.00;98428.16;4937353;28;20234;-58
2022/11/14 10:35:39;;;;;;;0.00;0.00;;;;;;;7.20;100.00;98431.53;4936065;29;20364;-59
2022/11/14 10:38:29;;;;;;;0.00;0.00;;;;;;;7.09;100.00;98425.47;4937466;29;20249;-58
2022/11/14 10:41:15;;;;;;;0.00;0.00;;;;;;;7.09;100.00;98427.28;4934656;28;20232;-58
2022/11/14 10:44:06;;;;;;;0.00;0.00;;;;;;;6.94;100.00;98429.41;4936266;29;20759;-58
2022/11/14 10:46:56;;;;;;;0.00;0.00;;;;;;;6.89;100.00;98427.22;4936256;29;20233;-58
2022/11/14 10:49:43;;;;;;;0.00;0.00;;;;;;;6.82;100.00;98433.09;4941613;29;20230;-58
2022/11/14 10:52:42;;;;;;;0.00;0.00;;;;;;;6.77;100.00;98430.88;4936804;28;20230;-58
2022/11/14 10:55:27;;;;;;;0.00;0.00;;;;;;;6.80;100.00;98425.41;4937892;29;20242;-58
2022/11/14 10:58:14;;;;;;;0.00;0.00;;;;;;;6.93;100.00;98418.22;4936509;29;20249;-58
2022/11/14 11:01:34;;;;;;;0.00;0.00;;;;;;;7.00;100.00;98425.47;4937323;29;20233;-58
2022/11/14 11:04:22;;;;;;;0.00;0.00;;;;;;;7.08;100.00;98423.84;4936240;29;20230;-57
2022/11/14 11:13:35;;;;;;;0.00;0.00;;;;;;;7.61;100.00;98405.44;4939284;29;20603;-58
2022/11/14 11:16:25;;;;;;;0.03;0.03;;;;;;;7.67;100.00;98415.28;4940438;29;20234;-58
2022/11/14 11:19:22;;;;;;;0.00;0.00;;;;;;;7.95;100.00;98410.19;4940881;29;20222;-59
2022/11/14 11:22:24;;;;;;;0.00;0.00;;;;;;;8.25;100.00;98409.16;4939592;28;20773;-58
2022/11/14 11:25:24;;;;;;;0.00;0.00;;;;;;;8.48;99.92;98408.03;4938764;29;20238;-59
2022/11/14 11:28:14;;;;;;;0.00;0.00;;;;;;;8.60;99.19;98406.88;4939711;29;20311;-59
2022/11/14 11:31:01;;;;;;;0.00;0.00;;;;;;;8.88;98.23;98406.91;4938639;29;20339;-58
2022/11/14 11:33:46;;;;;;;0.00;0.00;;;;;;;9.11;96.24;98407.31;4939519;29;20584;-58
2022/11/14 11:36:39;;;;;;;0.00;0.00;;;;;;;9.15;93.40;98408.66;4942353;29;20226;-59
2022/11/14 11:39:28;;;;;;;0.00;0.00;;;;;;;9.24;92.32;98399.16;4938111;29;20298;-59
2022/11/14 11:42:17;;;;;;;0.00;0.00;;;;;;;9.32;89.97;98398.41;4939237;29;20234;-57
2022/11/14 11:45:14;;;;;;;0.00;0.00;;;;;;;9.67;87.19;98393.31;4938559;29;20723;-58
2022/11/14 11:48:08;;;;;;;0.00;0.00;;;;;;;10.05;82.24;98391.31;4935560;29;20239;-59
2022/11/14 11:50:53;;;;;;;0.00;0.00;;;;;;;10.36;82.69;98383.03;4936294;29;20239;-59
2022/11/14 11:53:42;;;;;;;0.00;0.00;;;;;;;10.24;84.42;98389.47;4940098;29;20235;-59
2022/11/14 11:56:31;;;;;;;0.00;0.00;;;;;;;10.30;83.75;98392.28;4937085;29;20315;-58
2022/11/14 11:59:28;;;;;;;0.00;0.00;;;;;;;10.10;83.13;98381.25;4940703;29;20230;-58
2022/11/14 12:02:24;;;;;;;0.00;0.00;;;;;;;9.99;86.09;98390.16;4938530;29;20594;-59
2022/11/14 12:05:14;;;;;;;0.00;0.00;;;;;;;9.82;87.31;98383.19;4935030;29;20339;-60
2022/11/14 12:08:03;;;;;;;0.00;0.00;;;;;;;9.69;87.81;98379.19;4936361;29;20241;-59
2022/11/14 12:10:49;;;;;;;0.00;0.00;;;;;;;9.50;88.35;98382.78;4939010;28;20234;-59
2022/11/14 12:13:53;;;;;;;0.00;0.00;;;;;;;9.53;88.40;98385.09;4941606;29;20256;-58
2022/11/14 12:17:14;;;;;;;0.00;0.00;;;;;;;9.52;88.90;98387.81;4937877;29;20225;-59
2022/11/14 12:20:19;;;;;;;0.00;0.00;;;;;;;9.57;89.72;98383.78;4935916;29;20241;-58
2022/11/14 12:23:21;;;;;;;0.00;0.00;;;;;;;9.55;91.32;98379.72;4937675;29;20266;-58
2022/11/14 12:26:16;;;;;;;0.00;0.00;;;;;;;9.73;92.02;98366.66;4937534;29;20245;-58
2022/11/14 12:29:19;;;;;;;0.00;0.00;;;;;;;9.90;91.35;98381.44;4939152;29;20264;-58
2022/11/14 12:32:08;;;;;;;0.00;0.00;;;;;;;9.85;88.90;98362.81;4936370;29;20240;-58
2022/11/14 12:34:53;;;;;;;0.00;0.00;;;;;;;9.77;89.33;98360.16;4938093;29;20274;-58
2022/11/14 12:37:44;;;;;;;0.00;0.00;;;;;;;9.75;92.94;98343.84;4943264;29;20249;-58
2022/11/14 12:40:32;;;;;;;0.00;0.00;;;;;;;9.75;91.58;98364.72;4937079;29;20234;-58
2022/11/14 12:43:30;;;;;;;0.00;0.00;;;;;;;9.85;90.96;98355.00;4937126;28;20238;-59
2022/11/14 12:46:15;;;;;;;0.00;0.00;;;;;;;9.81;91.24;98358.88;4935804;28;20238;-58
2022/11/14 12:49:00;;;;;;;0.00;0.00;;;;;;;9.70;92.91;98365.19;4937680;29;20250;-59
2022/11/14 12:51:51;;;;;;;0.00;0.00;;;;;;;9.70;91.97;98366.94;4934443;28;20234;-58
2022/11/14 12:54:45;;;;;;;0.00;0.00;;;;;;;9.82;90.99;98364.94;4939488;29;20262;-58
2022/11/14 12:57:47;;;;;;;0.00;0.00;;;;;;;9.88;88.89;98362.53;4930180;28;20717;-59
2022/11/14 13:00:34;;;;;;;0.00;0.00;;;;;;;9.80;91.90;98369.47;4935795;29;20312;-58
2022/11/14 13:03:37;;;;;;;0.00;0.00;;;;;;;9.84;92.71;98357.78;4935341;29;20357;-58
2022/11/14 13:06:29;;;;;;;0.00;0.00;;;;;;;9.90;91.71;98371.00;4936330;29;20234;-58
2022/11/14 13:09:35;;;;;;;0.00;0.00;;;;;;;9.86;90.54;98364.47;4935450;29;20231;-60
2022/11/14 13:22:32;;;;;;;0.00;0.00;;;;;;;10.23;91.02;98351.31;4934164;29;20243;-58
2022/11/14 13:25:21;;;;;;;0.00;0.00;;;;;;;10.76;87.49;98365.09;4938204;29;20250;-58
2022/11/14 13:28:46;;;;;;;0.00;0.00;;;;;;;10.78;86.51;98350.91;4940031;28;20651;-58
2022/11/14 13:31:48;;;;;;;0.00;0.00;;;;;;;10.87;87.55;98356.97;4935716;28;20249;-58